Time;durP1;ratioP1;P1;durP2;ratioP2;P2;SDS_P1;SDS_P2;PMS_P1;PMS_P2;Temp;Humidity;BMP_temperature;BMP_pressure;BME280_temperature;BME280_humidity;BME280_pressure;Samples;Min_cycle;Max_cycle;Signal;HPM_P1;HPM_P2
2022/03/28 00:00:41;;;;;;;66.65;11.88;;;6.00;99.90;;;;;;5049329;28;20087;-67
2022/03/28 00:03:07;;;;;;;49.97;13.18;;;5.90;99.90;;;;;;5051163;28;20124;-68
2022/03/28 00:05:32;;;;;;;55.55;13.57;;;5.90;99.90;;;;;;5049617;28;20047;-67
2022/03/28 00:07:58;;;;;;;55.55;13.95;;;5.80;99.90;;;;;;5050989;28;20487;-67
2022/03/28 00:10:24;;;;;;;57.33;14.50;;;5.80;99.90;;;;;;5048007;28;20033;-67
2022/03/28 00:12:50;;;;;;;61.47;12.45;;;5.80;99.90;;;;;;5063013;28;20128;-67
2022/03/28 00:15:16;;;;;;;77.65;13.90;;;5.90;99.90;;;;;;5065651;28;20502;-66
2022/03/28 00:17:42;;;;;;;58.20;14.10;;;5.80;99.90;;;;;;5051964;28;20056;-67
2022/03/28 00:20:12;;;;;;;62.20;15.25;;;5.90;99.90;;;;;;5051926;28;20484;-66
2022/03/28 00:22:41;;;;;;;87.35;16.10;;;5.80;99.90;;;;;;5052010;28;20079;-66
2022/03/28 00:25:08;;;;;;;79.03;15.63;;;5.90;99.90;;;;;;5052186;28;20044;-66
2022/03/28 00:27:34;;;;;;;100.70;14.27;;;5.90;99.90;;;;;;5051966;28;20055;-66
2022/03/28 00:30:00;;;;;;;77.45;10.35;;;6.00;99.90;;;;;;5050532;28;20424;-65
2022/03/28 00:32:25;;;;;;;76.47;12.20;;;5.90;99.90;;;;;;5051688;28;20484;-66
2022/03/28 00:34:51;;;;;;;89.40;11.73;;;5.90;99.90;;;;;;5050267;28;20114;-66
2022/03/28 00:37:17;;;;;;;133.95;12.80;;;5.90;99.90;;;;;;5033442;28;20032;-65
2022/03/28 00:39:43;;;;;;;97.60;10.60;;;5.90;99.90;;;;;;5048696;28;20045;-66
2022/03/28 00:42:08;;;;;;;56.17;11.25;;;5.90;99.90;;;;;;5034608;28;20642;-67
2022/03/28 00:44:34;;;;;;;72.32;10.57;;;5.80;99.90;;;;;;5050984;28;20037;-66
2022/03/28 00:47:00;;;;;;;57.35;10.25;;;5.90;99.90;;;;;;5050568;28;20398;-66
2022/03/28 00:49:26;;;;;;;86.15;10.45;;;5.90;99.90;;;;;;5050915;28;20099;-67
2022/03/28 00:51:52;;;;;;;69.15;9.70;;;5.70;99.90;;;;;;5051016;28;20072;-66
2022/03/28 00:54:18;;;;;;;65.25;9.30;;;5.80;99.90;;;;;;5042434;28;20396;-66
2022/03/28 00:56:45;;;;;;;61.30;9.23;;;5.80;99.90;;;;;;5048583;28;20045;-67
2022/03/28 00:59:11;;;;;;;80.88;8.98;;;5.80;99.90;;;;;;5039117;28;20041;-68
2022/03/28 01:01:37;;;;;;;59.45;8.93;;;5.70;99.90;;;;;;5049774;28;20480;-67
2022/03/28 01:04:08;;;;;;;44.17;8.65;;;5.70;99.90;;;;;;5049747;28;20045;-67
2022/03/28 01:06:36;;;;;;;73.57;9.30;;;5.70;99.90;;;;;;5051550;28;20415;-68
2022/03/28 01:09:05;;;;;;;54.45;8.40;;;5.70;99.90;;;;;;5047688;28;20045;-68
2022/03/28 01:11:33;;;;;;;42.45;7.95;;;5.70;99.90;;;;;;5066008;28;20040;-66
2022/03/28 01:13:59;;;;;;;54.03;7.68;;;5.70;99.90;;;;;;5050158;28;20045;-66
2022/03/28 01:16:28;;;;;;;46.72;7.60;;;5.60;99.90;;;;;;5048052;28;20519;-66
2022/03/28 01:18:53;;;;;;;21.92;4.88;;;5.70;99.90;;;;;;5032211;28;20543;-67
2022/03/28 01:21:19;;;;;;;22.50;4.10;;;5.70;99.90;;;;;;5065208;28;20178;-66
2022/03/28 01:23:45;;;;;;;26.40;4.10;;;5.60;99.90;;;;;;5065612;28;20041;-66
2022/03/28 01:26:12;;;;;;;23.77;3.95;;;5.60;99.90;;;;;;5049416;28;20056;-66
2022/03/28 01:28:39;;;;;;;19.70;3.13;;;5.60;99.90;;;;;;5047644;28;20053;-66
2022/03/28 01:31:04;;;;;;;18.25;3.50;;;5.60;99.90;;;;;;5048972;28;20040;-67
2022/03/28 01:33:30;;;;;;;16.52;3.15;;;5.70;99.90;;;;;;5064176;28;20041;-65
2022/03/28 01:35:55;;;;;;;43.72;3.15;;;5.60;99.90;;;;;;5064087;28;20076;-65
2022/03/28 01:38:21;;;;;;;30.25;3.17;;;5.60;99.90;;;;;;5066553;28;20453;-65
2022/03/28 01:40:49;;;;;;;33.78;2.63;;;5.60;99.90;;;;;;5066023;28;20488;-67
2022/03/28 01:43:16;;;;;;;23.60;3.10;;;5.60;99.90;;;;;;5049246;28;20417;-65
2022/03/28 01:45:42;;;;;;;20.90;3.63;;;5.50;99.90;;;;;;5063036;28;20040;-67
2022/03/28 01:48:08;;;;;;;15.25;3.10;;;5.50;99.90;;;;;;5049604;28;20450;-67
2022/03/28 01:50:34;;;;;;;19.45;3.83;;;5.40;99.90;;;;;;5047052;28;20094;-66
2022/03/28 01:53:00;;;;;;;22.20;3.35;;;5.50;99.90;;;;;;5048790;28;20033;-66
2022/03/28 01:55:26;;;;;;;21.27;3.90;;;5.30;99.90;;;;;;5061272;28;20095;-67
2022/03/28 01:57:52;;;;;;;21.75;3.83;;;5.30;99.90;;;;;;5046546;28;20063;-66
2022/03/28 02:00:20;;;;;;;38.30;4.00;;;5.40;99.90;;;;;;5048507;28;20041;-66
2022/03/28 02:02:47;;;;;;;29.77;3.95;;;5.50;99.90;;;;;;5046577;28;20408;-66
2022/03/28 02:05:16;;;;;;;28.63;4.88;;;5.50;99.90;;;;;;5031791;28;20431;-66
2022/03/28 02:07:48;;;;;;;40.63;4.07;;;5.40;99.90;;;;;;5048642;28;20025;-66
2022/03/28 02:10:18;;;;;;;;;;;5.60;99.90;;;;;;5066195;28;20041;-66
2022/03/28 02:12:44;;;;;;;34.60;3.80;;;5.60;99.90;;;;;;5048953;28;19924;-65
2022/03/28 02:15:11;;;;;;;22.40;3.53;;;5.50;99.90;;;;;;5048269;28;20025;-66
2022/03/28 02:17:38;;;;;;;21.35;4.70;;;5.70;99.90;;;;;;5044419;28;20103;-66
2022/03/28 02:20:05;;;;;;;56.22;6.10;;;5.60;99.90;;;;;;5065015;28;20048;-66
2022/03/28 02:22:35;;;;;;;34.47;6.53;;;5.40;99.90;;;;;;5063041;28;20042;-65
2022/03/28 02:25:02;;;;;;;34.80;5.75;;;5.50;99.90;;;;;;5052981;28;20044;-66
2022/03/28 02:27:28;;;;;;;41.60;7.05;;;5.40;99.90;;;;;;5059457;28;20045;-66
2022/03/28 02:29:53;;;;;;;31.10;6.28;;;5.50;99.90;;;;;;5052237;28;20092;-66
2022/03/28 02:32:19;;;;;;;30.08;6.32;;;5.40;99.90;;;;;;5064300;28;20033;-66
2022/03/28 02:34:44;;;;;;;39.80;6.80;;;5.40;99.90;;;;;;5063157;28;20041;-66
2022/03/28 02:37:10;;;;;;;34.15;6.78;;;5.40;99.90;;;;;;5065956;28;20091;-66
2022/03/28 02:39:36;;;;;;;29.48;5.32;;;5.50;99.90;;;;;;5052902;28;20434;-66
2022/03/28 02:42:02;;;;;;;38.38;7.18;;;5.40;99.90;;;;;;5058288;28;20068;-66
2022/03/28 02:44:27;;;;;;;34.42;7.93;;;5.40;99.90;;;;;;5053094;28;20037;-66
2022/03/28 02:46:56;;;;;;;84.72;7.50;;;5.40;99.90;;;;;;5051898;28;20090;-66
2022/03/28 02:49:21;;;;;;;46.65;6.40;;;5.30;99.90;;;;;;5052638;28;20434;-66
2022/03/28 02:51:47;;;;;;;51.15;8.75;;;5.40;99.90;;;;;;5067275;28;20033;-66
2022/03/28 02:54:13;;;;;;;52.63;9.13;;;5.40;99.90;;;;;;5046974;28;20065;-66
2022/03/28 02:56:39;;;;;;;56.05;8.15;;;5.40;99.90;;;;;;5047302;28;20075;-66
2022/03/28 02:59:05;;;;;;;36.78;7.93;;;5.50;99.90;;;;;;5044813;28;20069;-66
2022/03/28 03:01:30;;;;;;;38.15;8.35;;;5.50;99.90;;;;;;5040907;28;20048;-66
2022/03/28 03:03:56;;;;;;;164.35;11.85;;;5.40;99.90;;;;;;5040764;28;20037;-65
2022/03/28 03:06:22;;;;;;;46.13;8.98;;;5.40;99.90;;;;;;5051861;28;20125;-66
2022/03/28 03:08:48;;;;;;;46.13;9.38;;;5.30;99.90;;;;;;5050998;28;20041;-66
2022/03/28 03:11:14;;;;;;;47.20;8.85;;;5.40;99.90;;;;;;5051183;28;20554;-66
2022/03/28 03:13:40;;;;;;;51.45;8.55;;;5.40;99.90;;;;;;5059530;28;20047;-66
2022/03/28 03:16:05;;;;;;;49.10;9.52;;;5.40;99.90;;;;;;5035450;28;20404;-66
2022/03/28 03:18:31;;;;;;;40.25;8.95;;;5.30;99.90;;;;;;5051412;28;20044;-66
2022/03/28 03:20:58;;;;;;;47.13;9.80;;;5.40;99.90;;;;;;5035038;28;20087;-66
2022/03/28 03:23:24;;;;;;;44.25;10.27;;;5.40;99.90;;;;;;5052286;28;20083;-66
2022/03/28 03:25:49;;;;;;;49.95;11.07;;;5.50;99.90;;;;;;5043872;28;20040;-66
2022/03/28 03:28:16;;;;;;;52.30;11.20;;;5.50;99.90;;;;;;5051946;28;20048;-66
2022/03/28 03:30:42;;;;;;;58.67;11.10;;;5.40;99.90;;;;;;5049031;28;20067;-67
2022/03/28 03:33:08;;;;;;;49.08;11.38;;;5.40;99.90;;;;;;5045573;28;20041;-66
2022/03/28 03:35:33;;;;;;;52.00;10.43;;;5.50;99.90;;;;;;5045149;28;20048;-66
2022/03/28 03:37:59;;;;;;;60.28;11.43;;;5.50;99.90;;;;;;5057968;28;20090;-66
2022/03/28 03:40:25;;;;;;;60.65;12.10;;;5.50;99.90;;;;;;5046427;28;20033;-66
2022/03/28 03:42:50;;;;;;;71.93;12.52;;;5.50;99.90;;;;;;5043808;28;20029;-66
2022/03/28 03:45:16;;;;;;;57.15;12.07;;;5.40;99.90;;;;;;5045960;28;20072;-66
2022/03/28 03:47:42;;;;;;;64.53;11.57;;;5.40;99.90;;;;;;5053932;28;20040;-66
2022/03/28 03:50:08;;;;;;;72.00;11.40;;;5.40;99.90;;;;;;5045817;28;20045;-66
2022/03/28 03:52:33;;;;;;;50.42;8.70;;;5.40;99.90;;;;;;5041503;28;20571;-66
2022/03/28 03:54:59;;;;;;;63.40;12.98;;;5.40;99.90;;;;;;5048685;28;20124;-66
2022/03/28 03:57:25;;;;;;;69.95;12.25;;;5.40;99.90;;;;;;5050110;28;20041;-66
2022/03/28 03:59:51;;;;;;;45.92;7.82;;;5.40;99.90;;;;;;5050393;28;20051;-67
2022/03/28 04:02:16;;;;;;;93.25;14.85;;;5.50;99.90;;;;;;5025479;28;20028;-66
2022/03/28 04:04:42;;;;;;;69.38;14.25;;;5.50;99.90;;;;;;5042470;28;20072;-66
2022/03/28 04:07:08;;;;;;;68.63;14.52;;;5.30;99.90;;;;;;5048899;28;20033;-67
2022/03/28 04:09:33;;;;;;;80.47;16.05;;;5.40;99.90;;;;;;5047933;28;20395;-66
2022/03/28 04:11:59;;;;;;;74.32;14.73;;;5.40;99.90;;;;;;5049642;28;20079;-66
2022/03/28 04:14:24;;;;;;;69.25;15.55;;;5.30;99.90;;;;;;5033622;28;20434;-66
2022/03/28 04:16:50;;;;;;;67.72;14.90;;;5.30;99.90;;;;;;5065790;28;20123;-66
2022/03/28 04:19:15;;;;;;;78.18;15.20;;;5.40;99.90;;;;;;5055284;28;20041;-66
2022/03/28 04:21:41;;;;;;;69.13;15.68;;;5.40;99.90;;;;;;5039574;28;20083;-66
2022/03/28 04:24:07;;;;;;;76.85;16.27;;;5.40;99.90;;;;;;5061442;28;20052;-65
2022/03/28 04:26:32;;;;;;;89.93;15.82;;;5.40;99.90;;;;;;5066554;28;20045;-65
2022/03/28 04:28:58;;;;;;;101.28;18.23;;;5.50;99.90;;;;;;5033709;28;20499;-65
2022/03/28 04:31:23;;;;;;;89.72;17.33;;;5.40;99.90;;;;;;5050135;28;20487;-67
2022/03/28 04:33:49;;;;;;;100.93;15.95;;;5.50;99.90;;;;;;5050533;28;20063;-66
2022/03/28 04:36:14;;;;;;;84.75;18.98;;;5.50;99.90;;;;;;5050629;28;20036;-65
2022/03/28 04:38:40;;;;;;;73.90;15.80;;;5.50;99.90;;;;;;5049317;28;20273;-66
2022/03/28 04:41:05;;;;;;;106.00;18.58;;;5.50;99.90;;;;;;5045822;28;20043;-66
2022/03/28 04:43:31;;;;;;;99.53;21.92;;;5.60;99.90;;;;;;5048871;28;20048;-65
2022/03/28 04:45:57;;;;;;;97.43;21.98;;;5.40;99.90;;;;;;5046673;28;20041;-66
2022/03/28 04:48:23;;;;;;;121.45;22.27;;;5.40;99.90;;;;;;5048982;28;20072;-65
2022/03/28 04:50:49;;;;;;;99.50;20.55;;;5.50;99.90;;;;;;5049183;28;20368;-66
2022/03/28 04:53:15;;;;;;;100.82;18.30;;;5.40;99.90;;;;;;5049814;28;20044;-65
2022/03/28 04:55:41;;;;;;;110.28;19.70;;;5.50;99.90;;;;;;5052393;28;20044;-66
2022/03/28 04:58:07;;;;;;;121.38;23.00;;;5.50;99.90;;;;;;5049621;28;20033;-66
2022/03/28 05:00:32;;;;;;;99.15;20.80;;;5.60;99.90;;;;;;5044018;28;20037;-65
2022/03/28 05:02:58;;;;;;;92.05;21.45;;;5.50;99.90;;;;;;5031431;28;20537;-67
2022/03/28 05:05:23;;;;;;;110.40;23.15;;;5.50;99.90;;;;;;5046050;28;20040;-67
2022/03/28 05:07:49;;;;;;;87.20;20.98;;;5.40;99.90;;;;;;5047684;28;20065;-67
2022/03/28 05:10:14;;;;;;;116.93;23.23;;;5.50;99.90;;;;;;5047707;28;20075;-67
2022/03/28 05:12:40;;;;;;;107.60;24.65;;;5.40;99.90;;;;;;5029837;28;20167;-67
2022/03/28 05:15:06;;;;;;;124.97;22.42;;;5.40;99.90;;;;;;5051546;28;20025;-67
2022/03/28 05:17:32;;;;;;;242.55;30.10;;;5.50;99.90;;;;;;5064438;28;20033;-66
2022/03/28 05:19:59;;;;;;;133.00;26.25;;;5.40;99.90;;;;;;5057724;28;20525;-66
2022/03/28 05:22:25;;;;;;;126.35;25.00;;;5.50;99.90;;;;;;5045716;28;20069;-66
2022/03/28 05:24:52;;;;;;;138.27;23.23;;;5.50;99.90;;;;;;5048187;28;20072;-66
2022/03/28 05:27:18;;;;;;;144.80;26.58;;;5.50;99.90;;;;;;5048291;28;20037;-65
2022/03/28 05:29:44;;;;;;;159.88;27.77;;;5.50;99.90;;;;;;5047326;28;20127;-67
2022/03/28 05:32:10;;;;;;;153.90;26.42;;;5.50;99.90;;;;;;5048204;28;20120;-66
2022/03/28 05:34:36;;;;;;;118.78;24.83;;;5.40;99.90;;;;;;5048691;28;20033;-65
2022/03/28 05:37:04;;;;;;;127.53;25.08;;;5.60;99.90;;;;;;5045180;28;20389;-66
2022/03/28 05:39:32;;;;;;;182.65;30.70;;;5.50;99.90;;;;;;5046066;28;20043;-65
2022/03/28 05:41:58;;;;;;;145.95;28.52;;;5.50;99.90;;;;;;5048151;28;20087;-65
2022/03/28 05:44:24;;;;;;;126.15;28.27;;;5.50;99.90;;;;;;5048829;28;20048;-66
2022/03/28 05:46:51;;;;;;;134.60;29.42;;;5.60;99.90;;;;;;5048931;28;20380;-66
2022/03/28 05:49:18;;;;;;;129.80;27.52;;;5.50;99.90;;;;;;5048876;28;20041;-66
2022/03/28 05:51:43;;;;;;;136.43;29.52;;;5.60;99.90;;;;;;5050431;28;20460;-66
2022/03/28 05:54:09;;;;;;;136.40;27.02;;;5.60;99.90;;;;;;5056833;28;20036;-66
2022/03/28 05:56:34;;;;;;;138.02;27.75;;;5.60;99.90;;;;;;5047944;28;20037;-66
2022/03/28 05:59:02;;;;;;;126.90;28.20;;;5.60;99.90;;;;;;5047883;28;20407;-66
2022/03/28 06:01:28;;;;;;;129.45;26.63;;;5.70;99.90;;;;;;5049632;28;20150;-66
2022/03/28 06:03:54;;;;;;;134.95;27.23;;;5.60;99.90;;;;;;5048143;28;20135;-65
2022/03/28 06:06:19;;;;;;;139.50;28.75;;;5.70;99.90;;;;;;5033453;28;20072;-66
2022/03/28 06:08:45;;;;;;;171.15;28.95;;;5.60;99.90;;;;;;5052071;28;20052;-65
2022/03/28 06:11:10;;;;;;;126.97;26.42;;;5.70;99.90;;;;;;5036046;28;20489;-66
2022/03/28 06:13:36;;;;;;;174.45;28.42;;;5.70;99.90;;;;;;5053523;28;20037;-66
2022/03/28 06:16:03;;;;;;;153.40;27.60;;;5.80;99.90;;;;;;5051555;28;20052;-66
2022/03/28 06:18:29;;;;;;;133.18;27.65;;;5.70;99.90;;;;;;5052446;28;20049;-67
2022/03/28 06:20:54;;;;;;;107.15;24.88;;;5.70;99.90;;;;;;5052397;28;20045;-65
2022/03/28 06:23:20;;;;;;;117.63;21.73;;;5.80;99.90;;;;;;5052848;28;20179;-66
2022/03/28 06:25:45;;;;;;;103.75;21.20;;;5.90;99.90;;;;;;5052643;28;20040;-66
2022/03/28 06:28:12;;;;;;;94.95;19.77;;;5.90;99.90;;;;;;5051870;28;20124;-67
2022/03/28 06:30:38;;;;;;;103.65;24.02;;;6.00;99.90;;;;;;5068159;28;20388;-66
2022/03/28 06:33:03;;;;;;;101.85;25.15;;;5.90;99.90;;;;;;5054224;28;20091;-66
2022/03/28 06:35:29;;;;;;;115.20;24.80;;;5.90;99.90;;;;;;5050010;28;20040;-66
2022/03/28 06:37:55;;;;;;;93.60;24.95;;;5.80;99.90;;;;;;5053418;28;20037;-66
2022/03/28 06:40:21;;;;;;;111.50;24.92;;;5.90;99.90;;;;;;5035124;28;20052;-67
2022/03/28 06:42:47;;;;;;;115.70;24.63;;;5.80;99.90;;;;;;5051115;28;20045;-66
2022/03/28 06:45:14;;;;;;;124.72;25.48;;;5.80;99.90;;;;;;5052388;28;20037;-66
2022/03/28 06:47:40;;;;;;;99.80;22.55;;;5.80;99.90;;;;;;5068046;28;20052;-66
2022/03/28 06:50:07;;;;;;;113.60;26.40;;;5.80;99.90;;;;;;5067231;28;20147;-67
2022/03/28 06:52:34;;;;;;;129.45;25.27;;;5.80;99.90;;;;;;5051487;28;20546;-66
2022/03/28 06:55:00;;;;;;;112.30;23.58;;;5.70;99.90;;;;;;5050489;28;20802;-66
2022/03/28 06:57:26;;;;;;;90.53;23.50;;;5.70;99.90;;;;;;5032793;28;20120;-66
2022/03/28 06:59:52;;;;;;;95.13;25.00;;;5.70;99.90;;;;;;5050594;28;20045;-67
2022/03/28 07:02:18;;;;;;;91.13;24.40;;;5.80;99.90;;;;;;5051654;28;20457;-67
2022/03/28 07:04:44;;;;;;;79.47;21.00;;;5.70;99.90;;;;;;5051209;28;20127;-66
2022/03/28 07:07:10;;;;;;;81.18;22.35;;;5.80;99.90;;;;;;5052015;28;20049;-67
2022/03/28 07:09:35;;;;;;;89.35;23.85;;;5.80;99.90;;;;;;5049829;28;20055;-66
2022/03/28 07:12:03;;;;;;;94.68;25.63;;;5.70;99.90;;;;;;5051295;28;20041;-67
2022/03/28 07:14:29;;;;;;;92.18;24.50;;;5.80;99.90;;;;;;5049257;28;20045;-66
2022/03/28 07:16:54;;;;;;;95.90;24.83;;;5.80;99.90;;;;;;5050893;28;20044;-67
2022/03/28 07:19:20;;;;;;;99.82;26.85;;;5.80;99.90;;;;;;5051793;28;20045;-67
2022/03/28 07:21:45;;;;;;;107.15;27.88;;;5.80;99.90;;;;;;5035049;28;20399;-66
2022/03/28 07:24:11;;;;;;;96.32;22.10;;;5.80;99.90;;;;;;5050621;28;20048;-66
2022/03/28 07:26:36;;;;;;;105.22;27.83;;;5.80;99.90;;;;;;5066113;28;20407;-67
2022/03/28 07:29:04;;;;;;;108.97;28.55;;;5.90;99.90;;;;;;5066766;28;20630;-67
2022/03/28 07:31:30;;;;;;;119.18;28.95;;;5.80;99.90;;;;;;5051287;28;20044;-67
2022/03/28 07:34:29;;;;;;;110.88;28.60;;;5.90;99.90;;;;;;5050656;28;20044;-67
2022/03/28 07:36:41;;;;;;;91.38;23.65;;;5.90;99.90;;;;;;5051728;28;20040;-66
2022/03/28 07:39:06;;;;;;;85.40;23.25;;;6.00;99.90;;;;;;5068230;28;20044;-66
2022/03/28 07:41:32;;;;;;;81.25;22.52;;;6.00;99.90;;;;;;5050417;28;20044;-67
2022/03/28 07:43:57;;;;;;;93.68;24.05;;;6.00;99.90;;;;;;5051312;28;20045;-66
2022/03/28 07:46:23;;;;;;;91.45;22.90;;;5.90;99.90;;;;;;5052120;28;20052;-66
2022/03/28 07:48:48;;;;;;;87.32;24.55;;;5.90;99.90;;;;;;5051206;28;20049;-66
2022/03/28 07:51:14;;;;;;;97.68;25.75;;;5.90;99.90;;;;;;5047008;28;20044;-66
2022/03/28 07:53:39;;;;;;;90.82;24.27;;;6.00;99.90;;;;;;5047684;28;20083;-68
2022/03/28 07:56:05;;;;;;;79.82;21.77;;;6.10;99.90;;;;;;5051235;28;20045;-68
2022/03/28 07:58:31;;;;;;;76.85;21.00;;;6.10;99.90;;;;;;5050841;28;20045;-67
2022/03/28 08:00:56;;;;;;;68.70;20.33;;;6.20;99.90;;;;;;5049978;28;20087;-68
2022/03/28 08:03:22;;;;;;;68.32;19.77;;;6.20;99.90;;;;;;5066143;28;20044;-68
2022/03/28 08:05:47;;;;;;;72.18;19.75;;;6.20;99.90;;;;;;5067566;28;20495;-68
2022/03/28 08:08:13;;;;;;;69.35;20.15;;;6.30;99.90;;;;;;5058889;28;20121;-69
2022/03/28 08:10:38;;;;;;;59.03;16.92;;;6.30;99.90;;;;;;5032158;28;20047;-69
2022/03/28 08:13:04;;;;;;;63.60;17.77;;;6.30;99.90;;;;;;5050461;28;20037;-68
2022/03/28 08:15:30;;;;;;;63.70;17.13;;;6.30;99.90;;;;;;5047904;28;20399;-68
2022/03/28 08:17:59;;;;;;;64.13;17.17;;;6.40;99.90;;;;;;5032475;28;20123;-69
2022/03/28 08:20:25;;;;;;;64.15;15.73;;;6.40;99.90;;;;;;5030702;28;20041;-68
2022/03/28 08:22:51;;;;;;;51.13;14.30;;;6.50;99.90;;;;;;5031977;28;20387;-68
2022/03/28 08:25:18;;;;;;;53.20;15.40;;;6.50;99.90;;;;;;5048625;28;20123;-66
2022/03/28 08:27:43;;;;;;;54.20;15.18;;;6.40;99.90;;;;;;5051388;28;20499;-67
2022/03/28 08:30:10;;;;;;;51.58;15.10;;;6.40;99.90;;;;;;5047735;28;20049;-67
2022/03/28 08:32:35;;;;;;;56.17;16.00;;;6.50;99.90;;;;;;5045784;28;20415;-67
2022/03/28 08:35:02;;;;;;;62.55;17.30;;;6.70;99.90;;;;;;5033579;28;20041;-67
2022/03/28 08:37:28;;;;;;;51.55;14.57;;;6.70;99.90;;;;;;5029997;28;20088;-66
2022/03/28 08:39:55;;;;;;;52.78;14.57;;;6.70;99.90;;;;;;5028382;28;20495;-67
2022/03/28 08:42:26;;;;;;;45.38;12.50;;;6.70;99.90;;;;;;5029608;28;20408;-66
2022/03/28 08:44:52;;;;;;;43.07;13.17;;;6.90;99.90;;;;;;5030753;28;20045;-67
2022/03/28 08:47:21;;;;;;;51.88;13.95;;;6.80;99.90;;;;;;5030547;28;20813;-67
2022/03/28 08:49:48;;;;;;;43.40;13.00;;;6.80;99.90;;;;;;5046151;28;20137;-67
2022/03/28 08:52:16;;;;;;;35.28;10.88;;;6.80;99.90;;;;;;5050599;28;20094;-67
2022/03/28 08:54:42;;;;;;;35.45;10.38;;;7.00;99.90;;;;;;5049940;28;20094;-66
2022/03/28 08:57:07;;;;;;;35.90;10.93;;;7.00;99.90;;;;;;5050204;28;20045;-68
2022/03/28 08:59:33;;;;;;;33.40;10.32;;;7.00;99.90;;;;;;5050119;28;20052;-69
2022/03/28 09:01:58;;;;;;;29.33;8.88;;;7.20;99.90;;;;;;5050498;28;20071;-68
2022/03/28 09:04:24;;;;;;;30.45;9.63;;;7.20;99.90;;;;;;5050582;28;20190;-70
2022/03/28 09:06:49;;;;;;;30.67;9.57;;;7.40;99.90;;;;;;5050502;28;20040;-68
2022/03/28 09:09:27;;;;;;;34.58;10.70;;;7.50;99.90;;;;;;5049648;28;20041;-67
2022/03/28 09:12:07;;;;;;;28.77;9.00;;;7.50;99.90;;;;;;5046521;28;20047;-66
2022/03/28 09:14:35;;;;;;;28.52;9.15;;;7.50;99.90;;;;;;5050575;28;20040;-67
2022/03/28 09:17:04;;;;;;;28.95;8.98;;;7.60;99.90;;;;;;5065677;28;20127;-68
2022/03/28 09:19:50;;;;;;;29.17;9.88;;;7.50;99.90;;;;;;5048587;28;20032;-68
2022/03/28 09:22:20;;;;;;;32.95;9.77;;;7.60;99.90;;;;;;5050169;28;20048;-67
2022/03/28 09:24:47;;;;;;;25.52;9.02;;;7.70;99.90;;;;;;5050383;28;20044;-68
2022/03/28 09:27:20;;;;;;;27.27;8.75;;;7.70;99.90;;;;;;5046837;28;20037;-68
2022/03/28 09:29:52;;;;;;;26.50;7.70;;;7.90;99.90;;;;;;5048083;28;20115;-67
2022/03/28 09:32:22;;;;;;;26.83;9.20;;;7.90;99.90;;;;;;5049359;28;20070;-66
2022/03/28 09:35:24;;;;;;;26.77;8.98;;;7.90;99.90;;;;;;5048597;28;20091;-67
2022/03/28 09:38:08;;;;;;;29.40;8.68;;;7.90;99.90;;;;;;5000936;28;20057;-67
2022/03/28 09:40:33;;;;;;;26.10;9.30;;;7.80;99.90;;;;;;5044928;28;20036;-67
2022/03/28 09:43:00;;;;;;;31.77;10.73;;;7.80;99.90;;;;;;5053118;28;20492;-68
2022/03/28 09:45:39;;;;;;;35.85;11.43;;;7.70;99.90;;;;;;5046654;28;20388;-67
2022/03/28 09:48:08;;;;;;;32.10;9.90;;;7.90;99.90;;;;;;5047952;28;20041;-67
2022/03/28 09:50:39;;;;;;;32.95;10.80;;;8.00;99.90;;;;;;5055817;28;20041;-67
2022/03/28 09:53:17;;;;;;;35.30;10.88;;;8.00;99.90;;;;;;5052960;28;20029;-68
2022/03/28 09:56:03;;;;;;;36.58;10.10;;;8.00;99.90;;;;;;5047923;28;20483;-67
2022/03/28 09:58:42;;;;;;;33.40;10.02;;;8.20;99.90;;;;;;5052022;28;20040;-67
2022/03/28 10:01:11;;;;;;;29.60;9.50;;;8.20;99.90;;;;;;5051531;28;20425;-67
2022/03/28 10:03:37;;;;;;;27.42;9.52;;;8.30;99.90;;;;;;5050080;28;20033;-67
2022/03/28 10:06:05;;;;;;;30.90;9.70;;;8.30;99.90;;;;;;5050866;28;20048;-66
2022/03/28 10:08:32;;;;;;;27.73;9.75;;;8.30;99.90;;;;;;5052231;28;20033;-68
2022/03/28 10:10:58;;;;;;;29.75;10.35;;;8.40;99.90;;;;;;5034707;28;20467;-67
2022/03/28 10:13:25;;;;;;;33.78;11.15;;;8.30;99.90;;;;;;5052237;28;20041;-67
2022/03/28 10:15:52;;;;;;;32.10;10.70;;;8.40;99.90;;;;;;5028854;28;20037;-68
2022/03/28 10:18:18;;;;;;;32.10;11.60;;;8.30;99.90;;;;;;5034102;28;20033;-68
2022/03/28 10:20:46;;;;;;;33.80;10.20;;;8.50;99.90;;;;;;5044691;28;20443;-67
2022/03/28 10:23:17;;;;;;;34.95;11.35;;;8.50;99.90;;;;;;5051758;28;20503;-68
2022/03/28 10:25:44;;;;;;;33.13;11.45;;;8.50;99.90;;;;;;5060958;28;20101;-67
2022/03/28 10:28:09;;;;;;;37.08;11.80;;;8.50;99.90;;;;;;5053288;28;20087;-68
2022/03/28 10:30:36;;;;;;;32.40;9.52;;;8.60;99.90;;;;;;5051678;28;20083;-67
2022/03/28 10:33:21;;;;;;;38.05;12.90;;;8.60;99.90;;;;;;5051652;28;20124;-68
2022/03/28 10:35:58;;;;;;;39.97;13.18;;;8.60;99.90;;;;;;5049869;28;20097;-67
2022/03/28 10:38:24;;;;;;;38.28;12.52;;;8.50;99.90;;;;;;5050760;28;20045;-67
2022/03/28 10:40:54;;;;;;;39.92;13.55;;;8.70;99.90;;;;;;5048531;28;20037;-67
2022/03/28 10:43:19;;;;;;;44.55;14.45;;;8.70;99.90;;;;;;5047789;28;20040;-67
2022/03/28 10:45:47;;;;;;;37.95;12.27;;;8.80;99.90;;;;;;5051770;28;20098;-66
2022/03/28 10:48:13;;;;;;;44.03;15.52;;;8.90;99.90;;;;;;5050417;28;20066;-67
2022/03/28 10:50:51;;;;;;;40.38;13.68;;;8.90;99.90;;;;;;5051399;28;20044;-68
2022/03/28 10:53:29;;;;;;;39.47;13.07;;;9.00;99.90;;;;;;5051511;28;20041;-70
2022/03/28 10:56:00;;;;;;;41.45;14.25;;;9.00;99.90;;;;;;5051818;28;20060;-68
2022/03/28 10:58:38;;;;;;;36.85;13.57;;;9.20;99.90;;;;;;5050125;28;20041;-69
2022/03/28 11:01:11;;;;;;;40.90;13.85;;;9.50;99.90;;;;;;5051175;28;20036;-69
2022/03/28 11:03:44;;;;;;;44.03;14.45;;;10.00;99.90;;;;;;5050699;28;20045;-69
2022/03/28 11:06:11;;;;;;;41.05;14.25;;;10.20;99.90;;;;;;5031014;28;20488;-69
2022/03/28 11:08:39;;;;;;;39.53;14.10;;;10.40;99.90;;;;;;5030811;28;20041;-69
2022/03/28 11:11:15;;;;;;;44.38;14.50;;;10.30;99.90;;;;;;5030909;28;20068;-69
2022/03/28 11:13:41;;;;;;;43.45;14.77;;;10.50;99.90;;;;;;5047868;28;20033;-69
2022/03/28 11:16:18;;;;;;;45.50;15.57;;;10.60;99.90;;;;;;5051904;28;20457;-69
2022/03/28 11:18:43;;;;;;;44.00;16.10;;;10.80;99.90;;;;;;5051739;28;20037;-70
2022/03/28 11:21:10;;;;;;;45.63;15.35;;;10.80;99.90;;;;;;5050365;28;20194;-70
2022/03/28 11:23:42;;;;;;;44.50;15.82;;;10.90;99.90;;;;;;5051255;28;20527;-69
2022/03/28 11:26:08;;;;;;;44.03;15.83;;;11.00;99.90;;;;;;5050591;28;20040;-69
2022/03/28 11:28:38;;;;;;;44.47;15.20;;;10.80;99.90;;;;;;4998816;28;1060799;-69
2022/03/28 11:31:11;;;;;;;46.38;15.57;;;10.70;99.90;;;;;;5032081;28;20528;-69
2022/03/28 11:33:48;;;;;;;39.03;15.35;;;10.70;99.90;;;;;;5041742;28;20037;-69
2022/03/28 11:36:22;;;;;;;44.10;14.52;;;10.60;99.90;;;;;;5052290;28;20118;-68
2022/03/28 11:38:52;;;;;;;44.50;15.50;;;10.60;99.90;;;;;;5051579;28;20056;-68
2022/03/28 11:41:20;;;;;;;43.75;15.68;;;10.40;99.90;;;;;;5046820;28;20091;-69
2022/03/28 11:43:51;;;;;;;45.05;16.58;;;10.20;99.90;;;;;;5045134;28;20492;-69
2022/03/28 11:46:22;;;;;;;40.83;15.82;;;10.00;99.90;;;;;;5050503;28;20452;-69
2022/03/28 11:48:59;;;;;;;42.30;14.68;;;10.00;99.90;;;;;;5050184;28;20032;-69
2022/03/28 11:51:27;;;;;;;40.50;14.57;;;10.20;99.90;;;;;;5049403;28;20076;-69
2022/03/28 11:53:54;;;;;;;45.03;15.52;;;10.30;99.90;;;;;;5031270;28;20032;-69
2022/03/28 11:56:29;;;;;;;42.28;15.38;;;10.40;99.90;;;;;;5050035;28;20032;-69
2022/03/28 11:59:06;;;;;;;46.03;15.43;;;10.50;99.90;;;;;;5060023;28;20037;-69
2022/03/28 12:01:32;;;;;;;45.60;16.45;;;10.60;99.90;;;;;;5061874;28;20047;-70
2022/03/28 12:03:59;;;;;;;45.15;15.20;;;10.80;99.90;;;;;;5050232;28;20089;-69
2022/03/28 12:06:27;;;;;;;43.60;15.88;;;10.90;99.90;;;;;;5049845;28;20045;-70
2022/03/28 12:08:53;;;;;;;41.35;15.00;;;11.00;99.90;;;;;;5051075;28;20051;-69
2022/03/28 12:11:19;;;;;;;44.15;15.23;;;11.10;99.90;;;;;;5050595;28;20269;-68
2022/03/28 12:13:45;;;;;;;46.35;16.45;;;11.10;99.90;;;;;;5050501;28;20037;-69
2022/03/28 12:16:10;;;;;;;44.30;15.93;;;11.00;99.90;;;;;;5049132;28;20032;-68
2022/03/28 12:18:36;;;;;;;43.28;16.45;;;11.00;99.90;;;;;;5048189;28;20045;-69
2022/03/28 12:21:02;;;;;;;47.58;17.05;;;11.00;99.90;;;;;;5050654;28;20036;-69
2022/03/28 12:23:28;;;;;;;46.25;17.45;;;11.10;99.90;;;;;;5051774;28;20087;-69
2022/03/28 12:25:55;;;;;;;43.80;16.95;;;11.20;99.90;;;;;;5050388;28;20412;-69
2022/03/28 12:28:23;;;;;;;45.35;16.70;;;11.20;99.90;;;;;;5053745;28;20455;-69
2022/03/28 12:30:55;;;;;;;40.92;15.45;;;11.20;99.90;;;;;;5063740;28;20484;-68
2022/03/28 12:33:35;;;;;;;45.10;16.40;;;11.30;99.90;;;;;;5053768;28;20041;-67
2022/03/28 12:36:03;;;;;;;41.22;15.23;;;11.30;99.90;;;;;;5034388;28;20037;-67